createdAt,value
2022-10-28T00:03:12.142Z,101896.91
2022-10-28T00:08:34.578Z,101894.89
2022-10-28T00:13:59.508Z,101897.11
2022-10-28T00:19:24.801Z,101889.59
2022-10-28T00:24:47.220Z,101892.03
2022-10-28T00:30:09.635Z,101888.89
2022-10-28T00:35:31.868Z,101890.79
2022-10-28T00:40:54.576Z,101877.52
2022-10-28T00:46:28.103Z,101870.59
2022-10-28T00:51:53.128Z,101867.30
2022-10-28T00:57:19.183Z,101860.33
2022-10-28T01:02:43.517Z,101856.05
2022-10-28T01:08:09.233Z,101848.31
2022-10-28T01:14:01.622Z,101859.48
2022-10-28T01:20:10.808Z,101858.04
2022-10-28T01:25:47.204Z,101854.81
2022-10-28T01:31:32.378Z,101844.39
2022-10-28T01:37:32.920Z,101846.70
2022-10-28T01:43:17.884Z,101835.78
2022-10-28T01:48:59.657Z,101833.10
2022-10-28T01:54:26.045Z,101826.80
2022-10-28T01:59:51.017Z,101821.52
2022-10-28T02:05:34.555Z,101814.52
2022-10-28T02:11:06.981Z,101807.64
2022-10-28T02:17:02.725Z,101806.64
2022-10-28T02:22:59.233Z,101797.58
2022-10-28T02:28:29.248Z,101792.23
2022-10-28T02:34:05.974Z,101783.74
2022-10-28T02:39:39.389Z,101787.73
2022-10-28T02:45:12.362Z,101776.81
2022-10-28T02:50:41.621Z,101774.92
2022-10-28T02:56:07.410Z,101770.73
2022-10-28T03:01:29.636Z,101769.70
2022-10-28T03:06:52.739Z,101758.20
2022-10-28T03:12:15.433Z,101756.72
2022-10-28T03:17:37.573Z,101747.00
2022-10-28T03:23:02.228Z,101754.41
2022-10-28T03:28:24.750Z,101749.19
2022-10-28T03:33:47.249Z,101740.30
2022-10-28T03:39:09.842Z,101740.38
2022-10-28T03:44:31.975Z,101735.97
2022-10-28T03:49:54.113Z,101731.34
2022-10-28T03:55:16.343Z,101729.53
2022-10-28T04:00:39.572Z,101732.83
2022-10-28T04:06:02.176Z,101720.88
2022-10-28T04:11:24.778Z,101725.13
2022-10-28T04:16:46.952Z,101723.96
2022-10-28T04:22:09.950Z,101717.66
2022-10-28T04:27:32.162Z,101712.13
2022-10-28T04:32:55.171Z,101695.98
2022-10-28T04:38:18.236Z,101693.25
2022-10-28T04:43:40.885Z,101686.86
2022-10-28T04:49:04.621Z,101676.14
2022-10-28T04:54:28.815Z,101668.89
2022-10-28T04:59:51.024Z,101675.20
2022-10-28T05:05:14.390Z,101675.98
2022-10-28T05:10:37.179Z,101673.47
2022-10-28T05:16:02.646Z,101664.48
2022-10-28T05:21:24.900Z,101653.69
2022-10-28T05:26:47.574Z,101658.88
2022-10-28T05:32:09.795Z,101661.50
2022-10-28T05:37:31.946Z,101653.38
2022-10-28T05:42:56.136Z,101653.38
2022-10-28T05:48:18.579Z,101657.00
2022-10-28T05:53:42.474Z,101651.65
2022-10-28T05:59:04.617Z,101649.92
2022-10-28T06:04:27.334Z,101647.16
2022-10-28T06:09:51.071Z,101645.08
2022-10-28T06:15:12.762Z,101644.77
2022-10-28T06:20:35.259Z,101650.73
2022-10-28T06:25:59.267Z,101644.36
2022-10-28T06:31:23.429Z,101657.67
2022-10-28T06:36:45.576Z,101647.91
2022-10-28T06:42:07.721Z,101664.77
2022-10-28T06:47:32.101Z,101669.98
2022-10-28T06:52:54.257Z,101665.86
2022-10-28T06:58:21.332Z,101659.48
2022-10-28T07:03:44.954Z,101667.09
2022-10-28T07:09:07.117Z,101661.50
2022-10-28T07:14:30.150Z,101657.36
2022-10-28T07:19:52.294Z,101656.67
2022-10-28T07:25:15.427Z,101645.19
2022-10-28T07:30:38.791Z,101653.92
2022-10-28T07:36:01.148Z,101655.98
2022-10-28T07:41:25.246Z,101653.31
2022-10-28T07:46:47.536Z,101650.25
2022-10-28T07:52:09.829Z,101650.14
2022-10-28T07:57:32.566Z,101647.24
2022-10-28T08:02:54.756Z,101644.77
2022-10-28T08:08:17.121Z,101645.90
2022-10-28T08:13:40.279Z,101641.02
2022-10-28T08:19:07.521Z,101637.41
2022-10-28T08:24:26.994Z,101639.44
2022-10-28T08:29:49.267Z,101638.18
2022-10-28T08:35:12.202Z,101629.79
2022-10-28T08:40:37.689Z,101639.25
2022-10-28T08:46:20.006Z,101635.36
2022-10-28T08:51:52.504Z,101631.22
2022-10-28T08:57:19.700Z,101614.95
2022-10-28T09:02:47.321Z,101611.88
2022-10-28T09:08:31.539Z,101600.62
2022-10-28T09:14:28.465Z,101600.31
2022-10-28T09:20:13.514Z,101595.13
2022-10-28T09:26:21.885Z,101603.19
2022-10-28T09:31:49.474Z,101598.55
2022-10-28T09:37:41.971Z,101582.41
2022-10-28T09:43:29.743Z,101571.15
2022-10-28T09:49:03.147Z,101568.89
2022-10-28T09:54:28.602Z,101579.13
2022-10-28T09:59:51.280Z,101587.05
2022-10-28T10:05:20.202Z,101571.75
2022-10-28T10:11:05.173Z,101573.08
2022-10-28T10:16:32.511Z,101561.12
2022-10-28T10:22:03.503Z,101549.08
2022-10-28T10:27:32.899Z,101552.78
2022-10-28T10:32:57.044Z,101545.61
2022-10-28T10:38:36.734Z,101541.94
2022-10-28T10:43:59.249Z,101540.33
2022-10-28T10:49:24.685Z,101541.36
2022-10-28T10:54:52.000Z,101547.95
2022-10-28T11:00:18.007Z,101558.00
2022-10-28T11:05:42.783Z,101568.75
2022-10-28T11:11:19.212Z,101578.87
2022-10-28T11:16:59.197Z,101587.28
2022-10-28T11:22:54.102Z,101591.33
2022-10-28T11:28:54.810Z,101611.41
2022-10-28T11:34:28.038Z,101644.83
2022-10-28T11:40:11.090Z,101667.30
2022-10-28T11:46:01.689Z,101654.62
2022-10-28T11:52:05.258Z,101655.13
2022-10-28T11:57:41.378Z,101643.68
2022-10-28T12:03:38.306Z,101604.88
2022-10-28T12:09:27.647Z,101586.91
2022-10-28T12:15:25.092Z,101576.33
2022-10-28T12:21:16.269Z,101561.91
2022-10-28T12:26:49.009Z,101565.81
2022-10-28T12:32:29.709Z,101564.12
2022-10-28T12:37:59.663Z,101557.20
2022-10-28T12:43:49.875Z,101541.41
2022-10-28T12:49:22.310Z,101539.27
2022-10-28T12:55:01.340Z,101531.11
2022-10-28T13:00:32.583Z,101526.62
2022-10-28T13:06:38.529Z,101478.28
2022-10-28T13:12:08.079Z,101466.72
2022-10-28T13:17:59.797Z,101437.59
2022-10-28T13:23:58.967Z,101446.20
2022-10-28T13:29:34.321Z,101429.81
2022-10-28T13:34:58.930Z,101424.00
2022-10-28T13:40:24.321Z,101402.23
2022-10-28T13:46:08.100Z,101407.52
2022-10-28T13:51:35.591Z,101408.01
2022-10-28T13:57:00.837Z,101430.87
2022-10-28T14:02:48.970Z,101444.44
2022-10-28T14:08:47.089Z,101455.13
2022-10-28T14:14:12.975Z,101459.44
2022-10-28T14:19:36.795Z,101455.20
2022-10-28T14:25:00.662Z,101453.75
2022-10-28T14:30:27.884Z,101454.13
2022-10-28T14:35:55.324Z,101454.55
2022-10-28T14:41:43.478Z,101448.23
2022-10-28T14:47:16.831Z,101450.91
2022-10-28T14:52:41.762Z,101463.02
2022-10-28T14:58:22.507Z,101457.83
2022-10-28T15:04:09.476Z,101460.63
2022-10-28T15:09:45.872Z,101452.30
2022-10-28T15:15:44.300Z,101428.67
2022-10-28T15:21:24.048Z,101380.41
2022-10-28T15:26:46.327Z,101413.88
2022-10-28T15:32:30.203Z,101403.98
2022-10-28T15:37:54.631Z,101411.66
2022-10-28T15:43:33.431Z,101412.83
2022-10-28T15:49:00.635Z,101403.85
2022-10-28T15:54:32.524Z,101397.84
2022-10-28T16:14:01.467Z,101383.74
2022-10-28T16:19:36.521Z,101373.91
2022-10-28T16:24:59.947Z,101384.95
2022-10-28T16:30:41.855Z,101376.98
2022-10-28T16:36:21.996Z,101376.09
2022-10-28T16:41:44.528Z,101377.35
2022-10-28T16:47:06.708Z,101371.09
2022-10-28T16:52:35.855Z,101384.12
2022-10-28T16:57:58.139Z,101385.60
2022-10-28T17:03:38.134Z,101380.39
2022-10-28T17:09:03.520Z,101381.73
2022-10-28T17:14:24.896Z,101379.80
2022-10-28T17:19:47.142Z,101373.80
2022-10-28T17:25:10.422Z,101365.22
2022-10-28T17:30:34.042Z,101355.42
2022-10-28T17:36:17.381Z,101349.80
2022-10-28T17:41:39.621Z,101353.59
2022-10-28T17:47:02.035Z,101354.95
2022-10-28T17:52:41.645Z,101359.26
2022-10-28T17:58:21.239Z,101351.50
2022-10-28T18:03:44.614Z,101337.64
2022-10-28T18:09:07.926Z,101329.04
2022-10-28T18:14:30.640Z,101332.34
2022-10-28T18:20:10.147Z,101338.48
2022-10-28T18:25:32.713Z,101327.80
2022-10-28T18:30:54.893Z,101314.17
2022-10-28T18:36:26.784Z,101312.55
2022-10-28T18:41:51.619Z,101303.84
2022-10-28T18:47:14.301Z,101287.64
2022-10-28T18:52:53.989Z,101276.84
2022-10-28T18:58:16.477Z,101285.45
2022-10-28T19:03:42.718Z,101289.77
2022-10-28T19:09:22.880Z,101296.34
2022-10-28T19:15:03.333Z,101286.88
2022-10-28T19:20:25.780Z,101291.59
2022-10-28T19:25:47.918Z,101290.97
2022-10-28T19:31:14.858Z,101280.07
2022-10-28T19:36:39.514Z,101278.32
2022-10-28T19:42:01.693Z,101268.28
2022-10-28T19:47:23.855Z,101270.97
2022-10-28T19:52:48.635Z,101279.80
2022-10-28T19:58:10.833Z,101266.92
2022-10-28T20:03:50.786Z,101268.23
2022-10-28T20:09:13.664Z,101269.56
2022-10-28T20:14:53.322Z,101277.56
2022-10-28T20:20:16.597Z,101274.62
2022-10-28T20:25:38.756Z,101270.08
2022-10-28T20:31:03.876Z,101259.75
2022-10-28T20:36:49.228Z,101263.42
2022-10-28T20:42:11.376Z,101259.31
2022-10-28T20:47:33.519Z,101257.22
2022-10-28T20:52:56.514Z,101260.19
2022-10-28T20:58:19.374Z,101256.64
2022-10-28T21:03:41.543Z,101252.64
2022-10-28T21:09:05.599Z,101259.38
2022-10-28T21:14:27.893Z,101259.06
2022-10-28T21:19:50.118Z,101261.70
2022-10-28T21:25:13.137Z,101258.16
2022-10-28T21:30:52.519Z,101260.36
2022-10-28T21:36:21.953Z,101246.87
2022-10-28T21:41:44.164Z,101246.02
2022-10-28T21:47:06.484Z,101246.59
2022-10-28T21:52:28.673Z,101241.08
2022-10-28T21:58:09.051Z,101238.66
2022-10-28T22:03:32.336Z,101239.73
2022-10-28T22:08:55.439Z,101239.12
2022-10-28T22:14:35.466Z,101233.48
2022-10-28T22:20:00.389Z,101231.48
2022-10-28T22:25:23.384Z,101224.45
2022-10-28T22:31:07.275Z,101233.48
2022-10-28T22:36:33.499Z,101230.58
2022-10-28T22:41:55.696Z,101228.22
2022-10-28T22:47:35.171Z,101218.08
2022-10-28T22:52:58.299Z,101204.32
2022-10-28T22:58:20.539Z,101205.27
2022-10-28T23:03:48.815Z,101208.70
2022-10-28T23:09:11.929Z,101207.89
2022-10-28T23:14:51.510Z,101205.52
2022-10-28T23:20:13.733Z,101207.16
2022-10-28T23:25:36.354Z,101217.48
2022-10-28T23:31:21.366Z,101223.48
2022-10-28T23:36:43.614Z,101220.45
2022-10-28T23:42:06.815Z,101220.91
2022-10-28T23:47:28.975Z,101215.64
2022-10-28T23:52:51.244Z,101211.97
2022-10-28T23:58:15.020Z,101206.45
